createdAt,value
2022-07-29T00:03:01.476Z,14.80
2022-07-29T00:07:18.557Z,14.90
2022-07-29T00:11:35.552Z,14.80
2022-07-29T00:15:52.552Z,14.80
2022-07-29T00:20:10.161Z,14.80
2022-07-29T00:24:27.191Z,14.70
2022-07-29T00:28:44.227Z,14.80
2022-07-29T00:33:01.305Z,14.70
2022-07-29T00:37:18.310Z,14.80
2022-07-29T00:41:35.331Z,14.70
2022-07-29T00:45:52.347Z,14.70
2022-07-29T00:50:11.321Z,14.70
2022-07-29T00:54:28.433Z,14.60
2022-07-29T00:58:47.612Z,14.70
2022-07-29T01:03:04.871Z,14.80
2022-07-29T01:07:22.103Z,14.80
2022-07-29T01:11:39.587Z,14.90
2022-07-29T01:15:59.308Z,14.80
2022-07-29T01:20:16.313Z,14.60
2022-07-29T01:24:59.108Z,14.70
2022-07-29T01:29:18.915Z,14.90
2022-07-29T01:33:51.557Z,14.70
2022-07-29T01:38:11.352Z,14.70
2022-07-29T01:42:43.752Z,14.80
2022-07-29T01:47:03.015Z,14.90
2022-07-29T01:51:30.025Z,15.00
2022-07-29T01:55:47.619Z,15.00
2022-07-29T02:00:05.977Z,15.00
2022-07-29T02:04:29.993Z,15.00
2022-07-29T02:08:48.522Z,14.90
2022-07-29T02:13:06.636Z,14.90
2022-07-29T02:17:25.803Z,15.00
2022-07-29T02:21:44.282Z,14.90
2022-07-29T02:26:01.978Z,15.00
2022-07-29T02:30:20.622Z,14.90
2022-07-29T02:34:39.036Z,14.90
2022-07-29T02:38:58.644Z,14.90
2022-07-29T02:43:16.093Z,14.80
2022-07-29T02:47:41.857Z,14.90
2022-07-29T02:52:01.169Z,14.90
2022-07-29T02:56:20.559Z,14.90
2022-07-29T03:00:38.585Z,14.80
2022-07-29T03:04:56.401Z,14.70
2022-07-29T03:09:15.305Z,14.80
2022-07-29T03:13:32.619Z,14.90
2022-07-29T03:17:50.218Z,14.90
2022-07-29T03:22:07.522Z,14.90
2022-07-29T03:26:24.530Z,14.90
2022-07-29T03:30:41.637Z,14.90
2022-07-29T03:35:01.549Z,14.80
2022-07-29T03:39:26.434Z,14.80
2022-07-29T03:43:49.333Z,14.70
2022-07-29T03:48:09.301Z,14.70
2022-07-29T03:52:26.349Z,14.70
2022-07-29T03:56:47.186Z,14.70
2022-07-29T04:01:04.493Z,14.70
2022-07-29T04:05:21.476Z,14.70
2022-07-29T04:09:38.483Z,14.70
2022-07-29T04:13:55.450Z,14.70
2022-07-29T04:18:12.584Z,14.60
2022-07-29T04:22:29.602Z,14.60
2022-07-29T04:26:47.350Z,14.70
2022-07-29T04:31:04.408Z,14.70
2022-07-29T04:35:21.606Z,14.80
2022-07-29T04:39:38.591Z,14.90
2022-07-29T04:43:55.583Z,15.10
2022-07-29T04:48:14.561Z,15.20
2022-07-29T04:52:31.659Z,15.30
2022-07-29T04:56:48.825Z,15.50
2022-07-29T05:01:05.987Z,15.60
2022-07-29T05:05:23.132Z,15.40
2022-07-29T05:09:40.190Z,15.50
2022-07-29T05:13:57.163Z,15.80
2022-07-29T05:18:15.044Z,16.00
2022-07-29T05:22:32.062Z,16.20
2022-07-29T05:26:49.110Z,16.10
2022-07-29T05:31:06.165Z,16.40
2022-07-29T05:35:23.502Z,16.70
2022-07-29T05:39:48.853Z,17.10
2022-07-29T05:44:07.627Z,17.30
2022-07-29T05:48:25.345Z,17.40
2022-07-29T05:52:42.358Z,17.40
2022-07-29T05:56:59.341Z,17.40
2022-07-29T06:01:17.066Z,17.70
2022-07-29T06:05:34.154Z,17.50
2022-07-29T06:09:51.165Z,17.70
2022-07-29T06:14:08.146Z,17.90
2022-07-29T06:18:25.171Z,17.80
2022-07-29T06:22:42.181Z,17.80
2022-07-29T06:26:59.543Z,18.10
2022-07-29T06:31:16.558Z,18.00
2022-07-29T06:35:41.119Z,18.30
2022-07-29T06:40:17.755Z,18.30
2022-07-29T06:44:34.921Z,18.40
2022-07-29T06:48:53.091Z,18.20
2022-07-29T06:53:10.515Z,18.30
2022-07-29T06:57:27.486Z,18.50
2022-07-29T07:01:44.771Z,18.90
2022-07-29T07:06:01.881Z,19.00
2022-07-29T07:10:18.941Z,19.50
2022-07-29T07:14:36.101Z,19.70
2022-07-29T07:18:53.088Z,19.80
2022-07-29T07:23:10.083Z,19.50
2022-07-29T07:27:28.431Z,19.50
2022-07-29T07:31:45.518Z,19.40
2022-07-29T07:36:02.588Z,19.50
2022-07-29T07:40:19.614Z,19.50
2022-07-29T07:44:57.350Z,19.40
2022-07-29T07:49:13.628Z,19.40
2022-07-29T07:53:31.421Z,20.10
2022-07-29T07:57:49.528Z,20.90
2022-07-29T08:02:07.038Z,22.90
2022-07-29T08:06:25.973Z,23.40
2022-07-29T08:10:56.598Z,22.90
2022-07-29T08:15:13.592Z,24.10
2022-07-29T08:19:30.696Z,24.40
2022-07-29T08:23:59.682Z,24.90
2022-07-29T08:28:18.111Z,24.60
2022-07-29T08:32:53.317Z,25.60
2022-07-29T08:37:11.415Z,25.50
2022-07-29T08:41:28.576Z,26.20
2022-07-29T08:45:49.938Z,26.70
2022-07-29T08:50:10.499Z,26.40
2022-07-29T08:54:28.240Z,26.90
2022-07-29T08:58:51.621Z,27.40
2022-07-29T09:03:10.254Z,27.50
2022-07-29T09:07:27.329Z,28.00
2022-07-29T09:11:52.294Z,29.70
2022-07-29T09:16:09.899Z,30.20
2022-07-29T09:20:47.387Z,29.20
2022-07-29T09:25:04.595Z,28.20
2022-07-29T09:29:23.133Z,29.20
2022-07-29T09:33:41.440Z,28.60
2022-07-29T09:37:58.569Z,29.10
2022-07-29T09:42:28.045Z,28.90
2022-07-29T09:46:58.836Z,28.90
2022-07-29T09:51:22.146Z,28.70
2022-07-29T09:55:51.690Z,29.10
2022-07-29T10:00:10.816Z,31.30
2022-07-29T10:04:40.584Z,31.50
2022-07-29T10:09:10.617Z,33.80
2022-07-29T10:13:27.713Z,34.30
2022-07-29T10:17:45.169Z,34.50
2022-07-29T10:22:04.299Z,34.40
2022-07-29T10:26:21.487Z,33.10
2022-07-29T10:30:40.859Z,32.10
2022-07-29T10:35:17.114Z,31.50
2022-07-29T10:39:50.007Z,31.20
2022-07-29T10:44:19.485Z,31.30
2022-07-29T10:48:58.468Z,31.90
2022-07-29T10:53:15.947Z,30.10
2022-07-29T10:57:53.652Z,30.40
2022-07-29T11:02:42.387Z,29.70
2022-07-29T11:07:04.042Z,29.20
2022-07-29T11:11:22.185Z,30.40
2022-07-29T11:15:58.349Z,31.80
2022-07-29T11:20:33.410Z,34.00
2022-07-29T11:25:10.343Z,34.40
2022-07-29T11:29:28.384Z,32.90
2022-07-29T11:33:56.035Z,31.10
2022-07-29T11:38:23.274Z,32.00
2022-07-29T11:42:44.439Z,33.00
2022-07-29T11:47:02.248Z,32.40
2022-07-29T11:51:19.307Z,31.70
2022-07-29T11:55:55.503Z,30.90
2022-07-29T12:00:14.557Z,29.70
2022-07-29T12:04:48.972Z,29.40
2022-07-29T12:09:14.382Z,30.00
2022-07-29T12:13:39.305Z,32.00
2022-07-29T12:17:56.986Z,33.80
2022-07-29T12:22:25.034Z,32.10
2022-07-29T12:26:55.450Z,32.70
2022-07-29T12:31:14.245Z,32.10
2022-07-29T12:35:31.374Z,33.90
2022-07-29T12:39:48.498Z,34.60
2022-07-29T12:44:05.590Z,31.30
2022-07-29T12:48:35.480Z,30.00
2022-07-29T12:52:52.518Z,29.90
2022-07-29T12:57:09.560Z,29.10
2022-07-29T13:01:37.510Z,29.10
2022-07-29T13:05:54.501Z,28.80
2022-07-29T13:10:19.196Z,28.70
2022-07-29T13:14:47.897Z,28.50
2022-07-29T13:19:10.160Z,28.10
2022-07-29T13:23:27.240Z,27.80
2022-07-29T13:27:46.718Z,27.70
2022-07-29T13:32:03.842Z,27.60
2022-07-29T13:36:21.356Z,27.20
2022-07-29T13:40:38.353Z,26.70
2022-07-29T13:44:55.511Z,25.40
2022-07-29T13:49:12.602Z,24.60
2022-07-29T13:53:30.377Z,24.00
2022-07-29T13:57:47.760Z,23.10
2022-07-29T14:02:04.775Z,22.00
2022-07-29T14:06:23.584Z,21.50
2022-07-29T14:10:40.918Z,21.10
2022-07-29T14:14:57.928Z,20.10
2022-07-29T14:19:14.967Z,19.80
2022-07-29T14:23:32.338Z,19.60
2022-07-29T14:27:49.367Z,19.20
2022-07-29T14:32:07.961Z,19.10
2022-07-29T14:36:25.173Z,19.20
2022-07-29T14:40:42.172Z,19.00
2022-07-29T14:44:59.241Z,18.90
2022-07-29T14:49:16.387Z,18.80
2022-07-29T14:53:33.719Z,18.70
2022-07-29T14:57:50.984Z,18.50
2022-07-29T15:02:08.105Z,18.30
2022-07-29T15:06:25.102Z,18.20
2022-07-29T15:10:42.138Z,18.20
2022-07-29T15:14:59.342Z,18.10
2022-07-29T15:19:16.533Z,18.10
2022-07-29T15:23:34.567Z,18.10
2022-07-29T15:27:53.376Z,18.10
2022-07-29T15:32:11.997Z,18.10
2022-07-29T15:36:50.811Z,18.30
2022-07-29T15:41:06.279Z,18.40
2022-07-29T15:45:23.372Z,18.60
2022-07-29T15:49:48.119Z,19.10
2022-07-29T15:54:06.480Z,20.00
2022-07-29T15:58:23.485Z,20.40
2022-07-29T16:02:40.513Z,20.00
2022-07-29T16:06:58.286Z,19.50
2022-07-29T16:11:16.059Z,19.20
2022-07-29T16:15:33.671Z,19.00
2022-07-29T16:19:50.665Z,19.00
2022-07-29T16:24:07.906Z,18.90
2022-07-29T16:28:24.901Z,18.80
2022-07-29T16:32:41.904Z,19.10
2022-07-29T16:36:59.237Z,19.50
2022-07-29T16:41:16.487Z,20.00
2022-07-29T16:45:45.586Z,20.10
2022-07-29T16:50:03.807Z,20.40
2022-07-29T16:54:20.818Z,20.50
2022-07-29T16:58:40.497Z,20.40
2022-07-29T17:03:00.384Z,20.10
2022-07-29T17:07:17.400Z,20.20
2022-07-29T17:11:52.726Z,20.20
2022-07-29T17:16:11.198Z,20.20
2022-07-29T17:20:28.480Z,20.10
2022-07-29T17:24:47.222Z,19.80
2022-07-29T17:29:04.233Z,19.70
2022-07-29T17:33:21.269Z,19.60
2022-07-29T17:37:38.327Z,19.50
2022-07-29T17:41:55.485Z,19.30
2022-07-29T17:46:12.519Z,19.40
2022-07-29T17:50:29.863Z,19.30
2022-07-29T17:54:49.146Z,19.30
2022-07-29T17:59:10.177Z,19.20
2022-07-29T18:03:27.304Z,19.20
2022-07-29T18:07:44.457Z,19.20
2022-07-29T18:12:01.462Z,19.10
2022-07-29T18:16:18.797Z,19.00
2022-07-29T18:20:35.871Z,18.90
2022-07-29T18:24:52.950Z,18.80
2022-07-29T18:29:10.842Z,18.70
2022-07-29T18:33:28.048Z,18.60
2022-07-29T18:38:01.450Z,18.50
2022-07-29T18:42:19.347Z,18.50
2022-07-29T18:46:36.413Z,18.50
2022-07-29T18:51:01.788Z,18.50
2022-07-29T18:55:19.118Z,18.50
2022-07-29T18:59:36.177Z,18.50
2022-07-29T19:03:53.199Z,18.50
2022-07-29T19:08:10.646Z,18.60
2022-07-29T19:12:27.675Z,18.50
2022-07-29T19:16:44.668Z,18.50
2022-07-29T19:21:01.629Z,18.50
2022-07-29T19:25:19.587Z,18.50
2022-07-29T19:29:36.584Z,18.40
2022-07-29T19:33:53.592Z,18.40
2022-07-29T19:38:10.882Z,18.30
2022-07-29T19:42:28.349Z,18.40
2022-07-29T19:46:45.439Z,18.40
2022-07-29T19:51:03.024Z,18.40
2022-07-29T19:55:20.699Z,18.40
2022-07-29T19:59:37.747Z,18.50
2022-07-29T20:03:54.853Z,18.50
2022-07-29T20:08:11.847Z,18.50
2022-07-29T20:12:28.866Z,18.70
2022-07-29T20:16:45.861Z,18.70
2022-07-29T20:21:04.673Z,18.70
2022-07-29T20:25:22.435Z,18.80
2022-07-29T20:29:39.662Z,18.80
2022-07-29T20:33:56.741Z,18.80
2022-07-29T20:38:17.905Z,18.80
2022-07-29T20:42:35.451Z,18.80
2022-07-29T20:46:52.518Z,18.80
2022-07-29T20:51:09.557Z,18.80
2022-07-29T20:55:26.637Z,18.80
2022-07-29T20:59:45.893Z,18.80
2022-07-29T21:04:03.088Z,18.80
2022-07-29T21:08:20.186Z,18.90
2022-07-29T21:12:37.172Z,18.80
2022-07-29T21:16:54.520Z,18.90
2022-07-29T21:21:12.058Z,19.00
2022-07-29T21:25:29.329Z,18.90
2022-07-29T21:29:46.327Z,18.80
2022-07-29T21:34:03.501Z,18.70
2022-07-29T21:38:20.580Z,18.60
2022-07-29T21:42:37.579Z,18.40
2022-07-29T21:46:54.607Z,18.30
2022-07-29T21:51:11.727Z,18.20
2022-07-29T21:55:28.761Z,18.20
2022-07-29T21:59:48.696Z,18.10
2022-07-29T22:04:05.737Z,18.10
2022-07-29T22:08:22.775Z,18.00
2022-07-29T22:12:39.810Z,18.00
2022-07-29T22:16:58.099Z,17.90
2022-07-29T22:21:16.895Z,17.80
2022-07-29T22:25:33.948Z,17.70
2022-07-29T22:29:50.973Z,17.70
2022-07-29T22:34:12.659Z,17.70
2022-07-29T22:38:29.681Z,17.60
2022-07-29T22:42:46.683Z,17.60
2022-07-29T22:47:04.101Z,17.60
2022-07-29T22:51:21.100Z,17.70
2022-07-29T22:55:38.179Z,17.60
2022-07-29T22:59:55.175Z,17.60
2022-07-29T23:04:12.194Z,17.60
2022-07-29T23:08:29.237Z,17.50
2022-07-29T23:12:46.215Z,17.50
2022-07-29T23:17:04.421Z,17.50
2022-07-29T23:21:21.803Z,17.60
2022-07-29T23:25:38.805Z,17.60
2022-07-29T23:29:55.812Z,17.60
2022-07-29T23:34:12.793Z,17.50
2022-07-29T23:38:29.973Z,17.50
2022-07-29T23:42:46.985Z,17.50
2022-07-29T23:47:04.325Z,17.50
2022-07-29T23:51:21.511Z,17.50
2022-07-29T23:55:39.356Z,17.50
2022-07-29T23:59:56.490Z,17.40
